createdAt,value
2023-04-15T00:02:42.560Z,25.00
2023-04-15T00:09:44.683Z,21.77
2023-04-15T00:16:46.377Z,23.48
2023-04-15T00:23:52.479Z,27.48
2023-04-15T00:30:54.108Z,24.52
2023-04-15T00:37:55.768Z,23.17
2023-04-15T00:44:57.393Z,25.10
2023-04-15T00:51:58.930Z,24.38
2023-04-15T00:59:00.955Z,26.83
2023-04-15T01:06:04.168Z,24.20
2023-04-15T01:13:06.752Z,29.20
2023-04-15T01:20:12.147Z,27.20
2023-04-15T01:27:13.795Z,27.95
2023-04-15T01:34:15.447Z,30.08
2023-04-15T01:41:17.270Z,28.70
2023-04-15T01:48:19.538Z,30.48
2023-04-15T01:55:21.074Z,30.38
2023-04-15T02:02:22.804Z,32.55
2023-04-15T02:09:24.899Z,25.35
2023-04-15T02:16:26.423Z,27.60
2023-04-15T02:23:27.958Z,31.45
2023-04-15T02:30:29.521Z,26.33
2023-04-15T02:37:31.781Z,30.40
2023-04-15T02:44:34.224Z,29.42
2023-04-15T02:51:38.870Z,34.50
2023-04-15T02:58:40.620Z,30.50
2023-04-15T03:05:42.259Z,24.80
2023-04-15T03:12:43.777Z,29.38
2023-04-15T03:19:50.872Z,27.02
2023-04-15T03:26:52.766Z,25.88
2023-04-15T03:33:54.464Z,22.85
2023-04-15T03:40:56.238Z,11.13
2023-04-15T03:48:07.374Z,24.40
2023-04-15T03:55:17.988Z,25.45
2023-04-15T04:02:19.608Z,26.27
2023-04-15T04:09:21.232Z,21.45
2023-04-15T04:16:22.792Z,20.17
2023-04-15T04:23:24.465Z,22.10
2023-04-15T04:30:26.006Z,23.48
2023-04-15T04:37:27.517Z,17.58
2023-04-15T04:44:29.086Z,19.15
2023-04-15T04:51:31.107Z,18.45
2023-04-15T04:58:32.676Z,18.48
2023-04-15T05:05:35.756Z,15.63
2023-04-15T05:12:38.500Z,15.30
2023-04-15T05:19:40.122Z,14.98
2023-04-15T05:26:42.798Z,16.98
2023-04-15T05:33:44.451Z,17.88
2023-04-15T05:40:45.947Z,17.38
2023-04-15T05:47:47.593Z,17.85
2023-04-15T05:54:49.160Z,15.63
2023-04-15T06:01:52.102Z,16.25
2023-04-15T06:08:55.688Z,13.85
2023-04-15T06:15:57.270Z,15.88
2023-04-15T06:22:58.917Z,17.48
2023-04-15T06:30:00.427Z,14.43
2023-04-15T06:37:02.653Z,14.77
2023-04-15T06:44:05.742Z,14.35
2023-04-15T06:51:07.258Z,13.60
2023-04-15T06:58:08.766Z,15.35
2023-04-15T07:05:10.327Z,14.68
2023-04-15T07:12:11.952Z,15.13
2023-04-15T07:19:13.504Z,10.25
2023-04-15T07:26:15.094Z,14.25
2023-04-15T07:33:16.796Z,9.63
2023-04-15T07:40:18.451Z,13.82
2023-04-15T07:47:20.017Z,13.02
2023-04-15T07:54:21.789Z,13.30
2023-04-15T08:01:23.362Z,15.82
2023-04-15T08:08:25.699Z,14.93
2023-04-15T08:15:28.413Z,14.32
2023-04-15T08:22:30.017Z,17.95
2023-04-15T08:29:34.564Z,11.13
2023-04-15T08:36:36.100Z,17.15
2023-04-15T08:43:41.973Z,14.25
2023-04-15T08:50:43.721Z,12.52
2023-04-15T08:57:45.232Z,16.75
2023-04-15T09:04:47.246Z,13.23
2023-04-15T09:11:50.052Z,15.02
2023-04-15T09:18:51.763Z,14.40
2023-04-15T09:25:53.310Z,11.38
2023-04-15T09:32:58.849Z,10.85
2023-04-15T09:40:00.512Z,14.75
2023-04-15T09:47:02.315Z,14.93
2023-04-15T09:54:04.602Z,15.02
2023-04-15T10:01:08.947Z,14.48
2023-04-15T10:08:10.834Z,13.20
2023-04-15T10:15:15.742Z,14.48
2023-04-15T10:22:17.661Z,15.32
2023-04-15T10:29:19.412Z,11.63
2023-04-15T10:36:20.968Z,12.45
2023-04-15T10:43:27.150Z,12.23
2023-04-15T10:50:29.773Z,11.90
2023-04-15T10:57:35.999Z,11.55
2023-04-15T11:05:00.779Z,14.45
2023-04-15T11:12:09.679Z,10.93
2023-04-15T11:19:11.403Z,14.05
2023-04-15T11:26:13.042Z,15.38
2023-04-15T11:33:14.666Z,16.00
2023-04-15T11:40:17.616Z,13.38
2023-04-15T11:47:25.621Z,13.00
2023-04-15T11:54:27.219Z,13.23
2023-04-15T12:01:36.256Z,12.70
2023-04-15T12:08:50.384Z,13.48
2023-04-15T12:15:51.970Z,13.65
2023-04-15T12:22:53.535Z,11.57
2023-04-15T12:30:04.448Z,10.20
2023-04-15T12:37:09.388Z,12.65
2023-04-15T12:44:10.916Z,9.50
2023-04-15T12:51:12.446Z,11.18
2023-04-15T12:58:15.028Z,11.85
2023-04-15T13:05:17.283Z,12.52
2023-04-15T13:12:19.015Z,11.25
2023-04-15T13:19:20.568Z,10.07
2023-04-15T13:26:22.143Z,9.20
2023-04-15T13:33:23.697Z,11.00
2023-04-15T13:40:25.561Z,10.63
2023-04-15T13:47:27.353Z,9.90
2023-04-15T13:54:37.865Z,10.25
2023-04-15T14:01:41.366Z,10.07
2023-04-15T14:08:42.921Z,11.75
2023-04-15T14:15:44.497Z,8.20
2023-04-15T14:22:46.080Z,9.77
2023-04-15T14:29:47.636Z,8.50
2023-04-15T14:36:49.190Z,9.93
2023-04-15T14:43:50.767Z,8.68
2023-04-15T14:50:52.850Z,8.93
2023-04-15T14:57:54.684Z,9.50
2023-04-15T15:04:57.430Z,10.23
2023-04-15T15:11:59.032Z,9.77
2023-04-15T15:19:01.191Z,9.13
2023-04-15T15:26:02.754Z,8.85
2023-04-15T15:33:04.405Z,9.52
2023-04-15T15:40:07.044Z,10.43
2023-04-15T15:47:08.581Z,8.80
2023-04-15T15:54:10.397Z,9.10
2023-04-15T16:01:11.995Z,8.45
2023-04-15T16:08:13.592Z,11.75
2023-04-15T16:15:15.124Z,9.60
2023-04-15T16:22:16.981Z,12.30
2023-04-15T16:29:18.650Z,8.48
2023-04-15T16:36:20.554Z,8.82
2023-04-15T16:43:22.156Z,8.50
2023-04-15T16:50:23.951Z,8.63
2023-04-15T16:57:30.305Z,8.45
2023-04-15T17:04:47.022Z,8.38
2023-04-15T17:11:48.541Z,8.52
2023-04-15T17:18:50.424Z,8.07
2023-04-15T17:25:51.950Z,8.82
2023-04-15T17:32:53.629Z,7.90
2023-04-15T17:39:55.332Z,8.07
2023-04-15T17:46:57.002Z,8.38
2023-04-15T17:53:58.678Z,10.52
2023-04-15T18:01:00.207Z,8.15
2023-04-15T18:08:01.829Z,8.80
2023-04-15T18:15:04.421Z,9.05
2023-04-15T18:22:06.200Z,9.77
2023-04-15T18:29:07.738Z,9.93
2023-04-15T18:36:10.209Z,11.63
2023-04-15T18:43:11.870Z,9.70
2023-04-15T18:50:13.421Z,8.93
2023-04-15T18:57:16.113Z,10.70
2023-04-15T19:04:26.261Z,17.77
2023-04-15T19:11:27.857Z,8.40
2023-04-15T19:18:29.412Z,10.63
2023-04-15T19:25:31.765Z,9.85
2023-04-15T19:32:34.124Z,12.23
2023-04-15T19:39:35.794Z,13.48
2023-04-15T19:46:37.371Z,12.07
2023-04-15T19:53:38.992Z,12.27
2023-04-15T20:00:40.535Z,12.75
2023-04-15T20:07:43.003Z,14.65
2023-04-15T20:14:44.690Z,11.88
2023-04-15T20:21:46.464Z,13.05
2023-04-15T20:28:48.105Z,14.02
2023-04-15T20:35:49.980Z,13.55
2023-04-15T20:42:51.635Z,10.13
2023-04-15T20:49:54.099Z,13.88
2023-04-15T20:56:57.154Z,12.65
2023-04-15T21:03:58.945Z,14.27
2023-04-15T21:11:00.772Z,11.30
2023-04-15T21:18:02.568Z,13.10
2023-04-15T21:25:04.602Z,13.82
2023-04-15T21:32:06.388Z,15.23
2023-04-15T21:39:08.307Z,14.02
2023-04-15T21:46:21.964Z,13.27
2023-04-15T21:53:26.376Z,13.63
2023-04-15T22:00:27.948Z,13.10
2023-04-15T22:07:29.508Z,17.60
2023-04-15T22:14:31.132Z,14.25
2023-04-15T22:21:32.740Z,15.82
2023-04-15T22:28:34.429Z,14.88
2023-04-15T22:35:37.153Z,13.77
2023-04-15T22:42:38.820Z,15.43
2023-04-15T22:49:41.056Z,13.73
2023-04-15T22:56:42.565Z,16.58
2023-04-15T23:03:56.729Z,15.75
2023-04-15T23:11:06.697Z,17.38
2023-04-15T23:18:08.360Z,14.05
2023-04-15T23:25:09.977Z,15.82
2023-04-15T23:32:11.650Z,16.27
2023-04-15T23:39:13.494Z,15.23
2023-04-15T23:46:15.150Z,15.27
2023-04-15T23:53:17.565Z,16.55
